KAMN/AMN METAR and TAF weather

Enter ICAO airport designator
Station Type Date Time Source
KAMN METAR 2019/06/18 12:56 UTC NOAA

KAMN 181256Z AUTO 00000KT 10SM CLR 19/17 A2999 RMK AO2 T01900174


Station Type Date Time Source
KAMN Decoded METAR 2019/06/18 12:56 UTC NOAA

Alma, Gratiot Community Airport, MI, United States (KAMN) 43-19-19N 084-41-16W
Jun 18, 2019 - 08:56 AM EDT / 2019.06.18 1256 UTC
Wind: Calm:0
Visibility: 10 mile(s):0
Sky conditions: clear
Temperature: 66.2 F (19.0 C)
Dew Point: 63.3 F (17.4 C)
Relative Humidity: 90%
Pressure (altimeter): 29.99 in. Hg (1015 hPa)
ob: KAMN 181256Z AUTO 00000KT 10SM CLR 19/17 A2999 RMK AO2 T01900174
cycle: 13

Station Type Date Time Source
KAMN TAF UTC NOAA

Error!

Example: see airport list